Time;durP1;ratioP1;P1;durP2;ratioP2;P2;SDS_P1;SDS_P2;PMS_P1;PMS_P2;Temp;Humidity;BMP_temperature;BMP_pressure;BME280_temperature;BME280_humidity;BME280_pressure;Samples;Min_cycle;Max_cycle;Signal;HPM_P1;HPM_P2
2023/07/24 00:02:04;;;;;;;10.80;6.70;;;17.70;99.90;;;;;;5034063;28;20078;-70
2023/07/24 00:04:33;;;;;;;13.60;6.28;;;17.70;99.90;;;;;;5050091;28;20052;-71
2023/07/24 00:07:01;;;;;;;9.88;6.20;;;17.70;99.90;;;;;;5034245;28;20140;-71
2023/07/24 00:09:27;;;;;;;10.98;6.38;;;17.60;99.90;;;;;;5034605;28;20080;-71
2023/07/24 00:11:53;;;;;;;13.73;6.68;;;17.60;99.90;;;;;;5032993;28;20045;-72
2023/07/24 00:14:18;;;;;;;10.48;6.10;;;17.60;99.90;;;;;;5033849;28;20045;-71
2023/07/24 00:16:44;;;;;;;9.82;6.00;;;17.60;99.90;;;;;;5033914;28;20092;-72
2023/07/24 00:19:10;;;;;;;13.50;6.22;;;17.60;99.90;;;;;;5033916;28;20091;-71
2023/07/24 00:21:36;;;;;;;11.00;5.90;;;17.60;99.90;;;;;;5034238;28;20132;-71
2023/07/24 00:24:01;;;;;;;11.35;6.07;;;17.60;99.90;;;;;;5033557;28;20061;-72
2023/07/24 00:26:27;;;;;;;12.63;6.55;;;17.50;99.90;;;;;;5032834;28;20056;-71
2023/07/24 00:28:53;;;;;;;11.43;5.90;;;17.50;99.90;;;;;;5033770;28;20092;-72
2023/07/24 00:31:18;;;;;;;9.20;6.22;;;17.50;99.90;;;;;;5032898;28;20073;-71
2023/07/24 00:33:44;;;;;;;9.25;5.45;;;17.50;99.90;;;;;;5032929;28;20041;-71
2023/07/24 00:36:10;;;;;;;9.13;5.85;;;17.50;99.90;;;;;;5033592;28;20450;-71
2023/07/24 00:38:35;;;;;;;10.77;6.00;;;17.40;99.90;;;;;;5032822;28;20511;-71
2023/07/24 00:41:01;;;;;;;12.85;6.90;;;17.40;99.90;;;;;;5032339;28;20041;-72
2023/07/24 00:43:27;;;;;;;10.95;5.93;;;17.40;99.90;;;;;;5032918;28;20186;-71
2023/07/24 00:45:54;;;;;;;8.90;5.63;;;17.40;99.90;;;;;;5033905;28;20046;-71
2023/07/24 00:48:19;;;;;;;11.27;6.53;;;17.40;99.90;;;;;;5033443;28;20684;-71
2023/07/24 00:50:46;;;;;;;15.23;6.82;;;17.40;99.90;;;;;;5033704;28;20045;-71
2023/07/24 00:53:13;;;;;;;9.88;6.38;;;17.40;99.90;;;;;;5032336;28;20103;-71
2023/07/24 00:55:39;;;;;;;9.70;5.80;;;17.40;99.90;;;;;;5033680;28;20063;-71
2023/07/24 00:58:05;;;;;;;10.18;6.15;;;17.30;99.90;;;;;;5033323;28;20048;-71
2023/07/24 01:00:31;;;;;;;9.98;5.75;;;17.30;99.90;;;;;;5033566;28;20045;-71
2023/07/24 01:02:59;;;;;;;11.43;6.68;;;17.30;99.90;;;;;;5033464;28;20052;-71
2023/07/24 01:05:26;;;;;;;11.63;6.78;;;17.30;99.90;;;;;;5033106;28;20084;-71
2023/07/24 01:07:54;;;;;;;8.75;6.00;;;17.30;99.90;;;;;;5032264;28;20045;-72
2023/07/24 01:10:20;;;;;;;10.23;7.00;;;17.30;99.90;;;;;;5033072;28;20085;-71
2023/07/24 01:12:58;;;;;;;11.20;6.85;;;17.20;99.90;;;;;;5033172;28;20092;-72
2023/07/24 01:15:36;;;;;;;10.35;6.82;;;17.20;99.90;;;;;;5033120;28;20045;-71
2023/07/24 01:18:10;;;;;;;14.48;7.03;;;17.20;99.90;;;;;;5048535;28;20068;-71
2023/07/24 01:20:39;;;;;;;16.67;7.03;;;17.10;99.90;;;;;;5033106;28;20088;-71
2023/07/24 01:23:22;;;;;;;12.80;7.60;;;17.10;99.90;;;;;;5031321;28;20392;-77
2023/07/24 01:25:58;;;;;;;15.13;7.78;;;17.10;99.90;;;;;;5033154;28;20046;-70
2023/07/24 01:28:25;;;;;;;12.98;7.45;;;17.10;99.90;;;;;;5032514;28;20045;-71
2023/07/24 01:30:51;;;;;;;11.23;7.93;;;17.10;99.90;;;;;;5031988;28;20053;-70
2023/07/24 01:33:17;;;;;;;13.73;7.20;;;17.10;99.90;;;;;;5032659;28;20088;-70
2023/07/24 01:35:44;;;;;;;17.55;7.85;;;17.10;99.90;;;;;;5032974;28;20045;-73
2023/07/24 01:38:14;;;;;;;11.65;7.60;;;17.00;99.90;;;;;;5032226;28;20487;-70
2023/07/24 01:40:40;;;;;;;13.98;8.35;;;17.10;99.90;;;;;;5032728;28;20053;-70
2023/07/24 01:43:06;;;;;;;14.95;7.82;;;16.90;99.90;;;;;;5032274;28;20088;-70
2023/07/24 01:45:32;;;;;;;9.93;7.78;;;16.90;99.90;;;;;;5031426;28;20076;-71
2023/07/24 01:47:58;;;;;;;13.05;8.15;;;16.90;99.90;;;;;;5032719;28;20616;-70
2023/07/24 01:50:24;;;;;;;11.70;8.15;;;16.90;99.90;;;;;;5031168;28;20045;-70
2023/07/24 01:52:50;;;;;;;15.70;8.85;;;16.90;99.90;;;;;;5031395;28;20048;-70
2023/07/24 01:55:16;;;;;;;15.85;8.70;;;16.90;99.90;;;;;;5032327;28;20045;-70
2023/07/24 01:57:41;;;;;;;16.83;8.90;;;16.90;99.90;;;;;;5032645;28;20128;-70
2023/07/24 02:00:08;;;;;;;12.70;8.90;;;16.80;99.90;;;;;;5032540;28;20052;-70
2023/07/24 02:02:33;;;;;;;13.88;9.02;;;16.80;99.90;;;;;;5032042;28;20044;-70
2023/07/24 02:04:59;;;;;;;14.00;9.48;;;16.90;99.90;;;;;;5037428;28;20049;-69
2023/07/24 02:07:25;;;;;;;13.65;9.35;;;16.90;99.90;;;;;;5034935;28;20056;-70
2023/07/24 02:09:50;;;;;;;14.18;9.32;;;16.90;99.90;;;;;;5032672;28;20041;-71
2023/07/24 02:12:16;;;;;;;15.20;10.60;;;16.90;99.90;;;;;;5032093;28;20096;-70
2023/07/24 02:14:42;;;;;;;14.30;9.23;;;16.90;99.90;;;;;;5031227;28;20531;-70
2023/07/24 02:17:07;;;;;;;13.35;10.30;;;17.00;99.90;;;;;;5032294;28;20133;-70
2023/07/24 02:19:33;;;;;;;13.25;9.70;;;17.00;99.90;;;;;;5031888;28;20045;-70
2023/07/24 02:21:59;;;;;;;16.67;10.15;;;17.00;99.90;;;;;;5030581;28;20058;-70
2023/07/24 02:24:25;;;;;;;15.10;9.85;;;17.00;99.90;;;;;;5030767;28;20108;-71
2023/07/24 02:26:50;;;;;;;13.20;10.25;;;17.00;99.90;;;;;;5031238;28;20484;-71
2023/07/24 02:29:16;;;;;;;13.40;10.00;;;17.00;99.90;;;;;;5030884;28;20045;-74
2023/07/24 02:31:42;;;;;;;14.60;10.95;;;17.00;99.90;;;;;;5031706;28;20050;-71
2023/07/24 02:34:08;;;;;;;13.60;10.32;;;17.00;99.90;;;;;;5034765;28;20057;-71
2023/07/24 02:36:34;;;;;;;12.65;10.55;;;17.00;99.90;;;;;;5034781;28;20098;-71
2023/07/24 02:38:59;;;;;;;13.23;10.75;;;16.90;99.90;;;;;;5017185;28;20502;-72
2023/07/24 02:41:25;;;;;;;13.20;10.88;;;16.90;99.90;;;;;;5033424;28;20057;-71
2023/07/24 02:43:51;;;;;;;12.27;10.98;;;16.90;99.90;;;;;;5034108;28;20380;-71
2023/07/24 02:46:16;;;;;;;15.05;11.30;;;16.90;99.90;;;;;;5033555;28;20487;-77
2023/07/24 02:48:42;;;;;;;16.35;11.50;;;16.90;99.90;;;;;;5030639;28;20049;-71
2023/07/24 02:51:08;;;;;;;14.50;11.13;;;16.90;99.90;;;;;;5030457;28;20045;-71
2023/07/24 02:53:33;;;;;;;17.85;11.50;;;16.90;99.90;;;;;;5013910;28;20048;-71
2023/07/24 02:56:02;;;;;;;16.90;12.25;;;16.80;99.90;;;;;;5035226;28;20446;-71
2023/07/24 02:58:27;;;;;;;15.73;11.60;;;16.80;99.90;;;;;;5035500;28;20388;-71
2023/07/24 03:00:53;;;;;;;14.15;11.10;;;16.90;99.90;;;;;;5034420;28;20056;-70
2023/07/24 03:03:19;;;;;;;14.07;11.63;;;16.90;99.90;;;;;;5034423;28;20042;-77
2023/07/24 03:05:44;;;;;;;16.08;11.40;;;16.90;99.90;;;;;;5034310;28;20091;-70
2023/07/24 03:08:10;;;;;;;16.58;11.38;;;16.90;99.90;;;;;;5035854;28;20045;-70
2023/07/24 03:10:40;;;;;;;15.23;11.13;;;16.90;99.90;;;;;;5033784;28;20045;-70
2023/07/24 03:13:06;;;;;;;14.75;10.70;;;16.90;99.90;;;;;;5034467;28;20075;-71
2023/07/24 03:15:32;;;;;;;14.20;10.65;;;16.90;99.90;;;;;;5034972;28;20045;-71
2023/07/24 03:17:57;;;;;;;15.05;11.23;;;17.00;99.90;;;;;;5035502;28;20398;-70
2023/07/24 03:20:23;;;;;;;14.30;11.20;;;17.00;99.90;;;;;;5035205;28;20049;-72
2023/07/24 03:22:49;;;;;;;13.10;10.13;;;17.00;99.90;;;;;;5034667;28;20162;-72
2023/07/24 03:25:15;;;;;;;12.75;9.95;;;17.00;99.90;;;;;;5035247;28;20054;-71
2023/07/24 03:27:40;;;;;;;12.75;10.05;;;17.00;99.90;;;;;;5034913;28;20049;-71
2023/07/24 03:30:07;;;;;;;13.13;9.23;;;17.00;99.90;;;;;;5035339;28;20125;-71
2023/07/24 03:32:32;;;;;;;13.32;9.63;;;17.00;99.90;;;;;;5033839;28;20099;-71
2023/07/24 03:34:58;;;;;;;18.88;9.88;;;17.00;99.90;;;;;;5035040;28;20049;-70
2023/07/24 03:37:24;;;;;;;11.82;8.85;;;17.00;99.90;;;;;;5017395;28;20080;-76
2023/07/24 03:39:49;;;;;;;12.20;9.20;;;17.10;99.90;;;;;;5034962;28;20049;-71
2023/07/24 03:42:29;;;;;;;12.75;8.48;;;17.10;99.90;;;;;;5034924;28;20049;-71
2023/07/24 03:44:56;;;;;;;12.15;8.50;;;17.10;99.90;;;;;;5034776;28;20056;-71
2023/07/24 03:47:22;;;;;;;14.20;8.05;;;17.10;99.90;;;;;;5033748;28;20060;-71
2023/07/24 03:49:47;;;;;;;14.38;8.88;;;17.10;99.90;;;;;;5033909;28;20057;-70
2023/07/24 03:52:13;;;;;;;13.60;8.32;;;17.10;99.90;;;;;;5034742;28;20052;-70
2023/07/24 03:54:39;;;;;;;13.40;8.18;;;17.10;99.90;;;;;;5034238;28;20037;-71
2023/07/24 03:57:05;;;;;;;13.65;8.20;;;17.10;99.90;;;;;;5033453;28;20415;-71
2023/07/24 03:59:31;;;;;;;13.65;8.80;;;17.10;99.90;;;;;;5034352;28;20183;-71
2023/07/24 04:01:57;;;;;;;16.40;8.15;;;17.10;99.90;;;;;;5033605;28;20049;-70
2023/07/24 04:04:23;;;;;;;13.00;8.30;;;17.20;99.90;;;;;;5033514;28;20057;-71
2023/07/24 04:06:49;;;;;;;12.05;7.80;;;17.20;99.90;;;;;;5032722;28;20049;-70
2023/07/24 04:09:14;;;;;;;12.40;7.78;;;17.20;99.90;;;;;;5033256;28;20410;-70
2023/07/24 04:11:41;;;;;;;16.58;8.35;;;17.20;99.90;;;;;;5034043;28;20475;-70
2023/07/24 04:14:07;;;;;;;12.75;8.15;;;17.20;99.90;;;;;;5034276;28;20138;-71
2023/07/24 04:16:32;;;;;;;11.20;7.78;;;17.20;99.90;;;;;;5033825;28;20061;-70
2023/07/24 04:18:58;;;;;;;10.70;7.43;;;17.20;99.90;;;;;;5034213;28;20093;-71
2023/07/24 04:21:24;;;;;;;10.95;7.50;;;17.20;99.90;;;;;;5034173;28;20057;-71
2023/07/24 04:23:49;;;;;;;12.48;7.53;;;17.20;99.90;;;;;;5035940;28;20271;-71
2023/07/24 04:26:15;;;;;;;13.82;7.38;;;17.20;99.90;;;;;;5034051;28;20136;-70
2023/07/24 04:28:41;;;;;;;13.88;7.68;;;17.20;99.90;;;;;;5033625;28;20107;-70
2023/07/24 04:31:06;;;;;;;11.82;7.88;;;17.20;99.90;;;;;;5034276;28;20046;-70
2023/07/24 04:33:32;;;;;;;14.23;7.80;;;17.20;99.90;;;;;;5032526;28;20124;-76
2023/07/24 04:35:58;;;;;;;12.60;8.27;;;17.20;99.90;;;;;;5034012;28;20045;-71
2023/07/24 04:38:24;;;;;;;12.60;8.10;;;17.20;99.90;;;;;;5032485;28;20597;-71
2023/07/24 04:40:49;;;;;;;11.20;7.80;;;17.20;99.90;;;;;;5033521;28;20037;-71
2023/07/24 04:43:15;;;;;;;11.73;7.78;;;17.20;99.90;;;;;;5033807;28;20056;-70
2023/07/24 04:45:41;;;;;;;12.88;8.32;;;17.20;99.90;;;;;;5032318;28;20045;-70
2023/07/24 04:48:06;;;;;;;12.32;8.65;;;17.20;99.90;;;;;;5032258;28;20049;-70
2023/07/24 04:50:32;;;;;;;12.82;7.97;;;17.20;99.90;;;;;;5033078;28;20554;-71
2023/07/24 04:52:58;;;;;;;10.68;8.27;;;17.20;99.90;;;;;;5033692;28;20049;-71
2023/07/24 04:55:25;;;;;;;12.27;7.68;;;17.20;99.90;;;;;;5033541;28;20053;-72
2023/07/24 04:57:50;;;;;;;11.10;8.13;;;17.20;99.90;;;;;;5031970;28;20054;-71
2023/07/24 05:00:16;;;;;;;12.73;8.32;;;17.20;99.90;;;;;;5033501;28;20041;-72
2023/07/24 05:02:42;;;;;;;15.15;8.60;;;17.20;99.90;;;;;;5033057;28;20502;-71
2023/07/24 05:05:08;;;;;;;11.02;8.30;;;17.20;99.90;;;;;;5033415;28;20107;-71
2023/07/24 05:07:34;;;;;;;12.13;8.48;;;17.20;99.90;;;;;;5033334;28;20427;-72
2023/07/24 05:10:00;;;;;;;13.43;8.63;;;17.20;99.90;;;;;;5015393;28;20045;-70
2023/07/24 05:12:25;;;;;;;12.98;8.70;;;17.30;99.90;;;;;;5032178;28;20090;-71
2023/07/24 05:14:51;;;;;;;12.75;8.55;;;17.20;99.90;;;;;;5032936;28;20042;-71
2023/07/24 05:17:17;;;;;;;13.10;9.15;;;17.30;99.90;;;;;;5032691;28;20179;-73
2023/07/24 05:19:43;;;;;;;11.27;9.05;;;17.30;99.90;;;;;;5014681;28;20087;-72
2023/07/24 05:22:10;;;;;;;10.55;8.32;;;17.30;99.90;;;;;;5031668;28;20144;-71
2023/07/24 05:24:36;;;;;;;12.95;9.15;;;17.30;99.90;;;;;;5033029;28;20191;-72
2023/07/24 05:27:05;;;;;;;13.20;9.68;;;17.30;99.90;;;;;;5031571;28;20057;-71
2023/07/24 05:29:31;;;;;;;12.13;9.40;;;17.40;99.90;;;;;;5032715;28;20145;-74
2023/07/24 05:31:58;;;;;;;11.55;8.98;;;17.40;99.90;;;;;;5032212;28;20089;-70
2023/07/24 05:34:25;;;;;;;10.27;8.55;;;17.40;99.90;;;;;;5031939;28;20463;-71
2023/07/24 05:36:51;;;;;;;13.55;8.63;;;17.40;99.90;;;;;;5031233;28;20049;-70
2023/07/24 05:39:16;;;;;;;9.93;8.90;;;17.40;99.90;;;;;;5032684;28;20046;-70
2023/07/24 05:41:42;;;;;;;10.93;9.32;;;17.50;99.90;;;;;;5031849;28;20045;-73
2023/07/24 05:44:08;;;;;;;12.48;8.52;;;17.50;99.90;;;;;;5032613;28;20042;-71
2023/07/24 05:46:34;;;;;;;15.18;9.20;;;17.50;99.90;;;;;;5032707;28;20088;-71
2023/07/24 05:49:01;;;;;;;10.98;9.13;;;17.50;99.90;;;;;;5032220;28;20085;-71
2023/07/24 05:51:27;;;;;;;13.27;9.65;;;17.50;99.90;;;;;;5015181;28;20071;-71
2023/07/24 05:53:53;;;;;;;13.38;9.02;;;17.50;99.90;;;;;;5030804;28;20092;-71
2023/07/24 05:56:18;;;;;;;10.60;8.60;;;17.50;99.90;;;;;;5031722;28;20081;-71
2023/07/24 05:58:44;;;;;;;15.50;9.43;;;17.60;99.90;;;;;;5031984;28;20428;-75
2023/07/24 06:01:10;;;;;;;15.63;9.07;;;17.60;99.90;;;;;;5032153;28;20045;-71
2023/07/24 06:03:36;;;;;;;12.10;8.73;;;17.60;99.90;;;;;;5030818;28;20056;-72
2023/07/24 06:06:02;;;;;;;11.63;9.18;;;17.70;99.90;;;;;;5030767;28;20053;-70
2023/07/24 06:08:28;;;;;;;12.07;8.77;;;17.60;99.90;;;;;;5030940;28;20075;-71
2023/07/24 06:10:54;;;;;;;12.13;9.30;;;17.50;99.90;;;;;;5031739;28;20049;-70
2023/07/24 06:13:19;;;;;;;14.65;9.30;;;17.50;99.90;;;;;;5031989;28;20077;-71
2023/07/24 06:15:48;;;;;;;12.43;9.45;;;17.50;99.90;;;;;;5030825;28;20046;-76
2023/07/24 06:18:14;;;;;;;12.43;9.85;;;17.50;99.90;;;;;;5032166;28;20049;-70
2023/07/24 06:20:40;;;;;;;11.77;9.65;;;17.60;99.90;;;;;;5047460;28;20052;-70
2023/07/24 06:23:06;;;;;;;12.23;9.43;;;17.60;99.90;;;;;;5031584;28;20045;-70
2023/07/24 06:25:32;;;;;;;15.02;8.68;;;17.60;99.90;;;;;;5031979;28;20046;-71
2023/07/24 06:27:58;;;;;;;14.77;9.23;;;17.70;99.90;;;;;;5031757;28;20052;-70
2023/07/24 06:30:24;;;;;;;14.02;8.90;;;17.70;99.90;;;;;;5030321;28;20399;-70
2023/07/24 06:32:49;;;;;;;13.05;8.48;;;17.80;99.90;;;;;;5030377;28;20360;-71
2023/07/24 06:35:15;;;;;;;13.40;8.68;;;17.90;99.90;;;;;;5032238;28;20128;-71
2023/07/24 06:37:41;;;;;;;11.57;8.25;;;17.90;99.90;;;;;;5031771;28;20045;-70
2023/07/24 06:40:07;;;;;;;14.82;8.98;;;18.00;99.90;;;;;;5033778;28;20045;-70
2023/07/24 06:42:33;;;;;;;13.57;8.70;;;18.00;99.90;;;;;;5032939;28;20052;-72
2023/07/24 06:44:59;;;;;;;13.68;7.60;;;18.00;99.90;;;;;;5031537;28;20403;-70
2023/07/24 06:47:26;;;;;;;14.55;8.80;;;18.10;99.90;;;;;;5047213;28;20057;-71
2023/07/24 06:49:51;;;;;;;12.57;8.00;;;18.10;99.90;;;;;;5031698;28;20578;-73
2023/07/24 06:52:17;;;;;;;13.18;8.27;;;18.10;99.90;;;;;;5031658;28;20136;-70
2023/07/24 06:54:43;;;;;;;11.50;8.25;;;18.20;99.90;;;;;;5031868;28;20041;-69
2023/07/24 06:57:09;;;;;;;12.68;7.95;;;18.20;99.90;;;;;;5031279;28;20052;-71
2023/07/24 06:59:34;;;;;;;10.93;8.10;;;18.20;99.90;;;;;;5031667;28;20041;-72
2023/07/24 07:02:00;;;;;;;11.63;8.05;;;18.20;99.90;;;;;;5030198;28;20121;-71
2023/07/24 07:04:26;;;;;;;12.10;8.20;;;18.20;99.90;;;;;;5031796;28;20183;-72
2023/07/24 07:06:51;;;;;;;11.95;8.20;;;18.30;99.90;;;;;;5031358;28;20528;-73
2023/07/24 07:09:17;;;;;;;11.80;7.78;;;18.30;99.90;;;;;;5031530;28;20052;-72
2023/07/24 07:11:44;;;;;;;10.20;8.15;;;18.30;99.90;;;;;;5031816;28;20041;-69
2023/07/24 07:14:10;;;;;;;12.02;8.48;;;18.40;99.90;;;;;;5030116;28;20049;-71
2023/07/24 07:16:36;;;;;;;12.98;8.05;;;18.40;99.90;;;;;;5031627;28;20429;-72
2023/07/24 07:19:02;;;;;;;13.60;8.40;;;18.50;99.90;;;;;;5013464;28;20049;-72
2023/07/24 07:21:27;;;;;;;14.82;8.25;;;18.60;99.90;;;;;;5030910;28;20406;-71
2023/07/24 07:23:53;;;;;;;13.05;8.45;;;18.70;99.90;;;;;;5031381;28;20072;-72
2023/07/24 07:26:19;;;;;;;10.98;7.43;;;18.70;99.90;;;;;;5029830;28;20042;-71
2023/07/24 07:28:44;;;;;;;14.90;8.35;;;18.70;99.90;;;;;;5031392;28;20132;-70
2023/07/24 07:31:10;;;;;;;15.52;8.32;;;18.80;99.90;;;;;;5030823;28;20053;-70
2023/07/24 07:33:36;;;;;;;11.80;8.20;;;18.80;99.90;;;;;;5031212;28;20162;-71
2023/07/24 07:36:03;;;;;;;13.82;8.98;;;18.80;99.90;;;;;;5031168;28;20132;-71
2023/07/24 07:38:29;;;;;;;14.20;8.07;;;18.70;99.90;;;;;;5030116;28;20046;-71
2023/07/24 07:40:55;;;;;;;13.00;8.52;;;18.80;99.90;;;;;;5032682;28;20068;-71
2023/07/24 07:43:21;;;;;;;14.73;8.88;;;18.80;99.90;;;;;;5034622;28;20479;-71
2023/07/24 07:45:47;;;;;;;12.30;8.30;;;18.90;99.90;;;;;;5033716;28;20045;-71
2023/07/24 07:48:13;;;;;;;13.43;8.13;;;18.90;99.90;;;;;;5034556;28;20053;-71
2023/07/24 07:50:38;;;;;;;18.42;8.77;;;18.90;99.90;;;;;;5034680;28;20543;-72
2023/07/24 07:53:04;;;;;;;12.77;7.97;;;19.00;99.90;;;;;;5033142;28;20085;-72
2023/07/24 07:55:30;;;;;;;15.77;8.63;;;19.00;99.90;;;;;;5034720;28;20056;-73
2023/07/24 07:57:55;;;;;;;14.10;8.55;;;19.00;99.90;;;;;;5034765;28;20559;-72
2023/07/24 08:00:21;;;;;;;19.10;8.90;;;19.10;99.90;;;;;;5034138;28;20099;-72
2023/07/24 08:02:47;;;;;;;12.68;8.50;;;19.10;99.90;;;;;;5034508;28;20096;-71
2023/07/24 08:05:13;;;;;;;14.50;7.82;;;19.30;99.90;;;;;;5032799;28;20108;-72
2023/07/24 08:07:39;;;;;;;12.98;7.93;;;19.30;99.90;;;;;;5034433;28;20136;-72
2023/07/24 08:10:06;;;;;;;14.43;8.25;;;19.30;99.90;;;;;;5034017;28;20049;-72
2023/07/24 08:12:32;;;;;;;12.18;8.07;;;19.40;99.90;;;;;;5033967;28;20578;-72
2023/07/24 08:14:57;;;;;;;12.80;7.95;;;19.40;99.90;;;;;;5034255;28;20129;-69
2023/07/24 08:17:23;;;;;;;10.77;7.35;;;19.50;99.90;;;;;;5033667;28;20052;-70
2023/07/24 08:19:49;;;;;;;12.07;6.55;;;19.60;99.90;;;;;;5033979;28;20120;-71
2023/07/24 08:22:15;;;;;;;13.60;7.68;;;19.70;99.90;;;;;;5032418;28;20555;-71
2023/07/24 08:24:40;;;;;;;12.52;7.25;;;19.70;99.90;;;;;;5034059;28;20099;-72
2023/07/24 08:27:06;;;;;;;13.00;7.00;;;19.70;99.90;;;;;;5032339;28;20286;-73
2023/07/24 08:29:33;;;;;;;11.35;6.78;;;19.80;99.90;;;;;;5033854;28;20384;-73
2023/07/24 08:31:58;;;;;;;12.85;7.70;;;19.80;99.90;;;;;;5033766;28;20068;-74
2023/07/24 08:34:25;;;;;;;13.48;7.90;;;19.80;99.90;;;;;;5002017;28;20395;-70
2023/07/24 08:36:50;;;;;;;13.82;8.10;;;19.80;99.90;;;;;;5032615;28;20053;-70
2023/07/24 08:39:16;;;;;;;14.30;7.30;;;19.90;99.90;;;;;;5033636;28;20044;-71
2023/07/24 08:41:42;;;;;;;14.35;7.15;;;19.90;99.90;;;;;;5016146;28;20369;-71
2023/07/24 08:44:08;;;;;;;13.30;7.53;;;19.80;99.90;;;;;;5032566;28;20104;-71
2023/07/24 08:46:45;;;;;;;15.20;7.35;;;19.80;99.90;;;;;;5049459;28;20056;-70
2023/07/24 08:49:14;;;;;;;12.70;7.10;;;19.80;99.90;;;;;;5033229;28;20053;-71
2023/07/24 08:51:45;;;;;;;14.00;7.60;;;19.80;99.90;;;;;;5032081;28;20060;-71
2023/07/24 08:54:12;;;;;;;10.30;7.00;;;19.80;99.90;;;;;;5032870;28;20042;-71
2023/07/24 08:56:40;;;;;;;14.48;7.60;;;19.80;99.90;;;;;;5032582;28;20049;-71
2023/07/24 08:59:06;;;;;;;12.98;7.13;;;19.80;99.90;;;;;;5037235;28;20088;-71
2023/07/24 09:01:32;;;;;;;11.68;7.15;;;19.90;99.90;;;;;;5035478;28;20057;-70
2023/07/24 09:03:57;;;;;;;11.85;7.25;;;19.90;99.90;;;;;;5016093;28;20060;-70
2023/07/24 09:06:23;;;;;;;15.57;6.93;;;19.90;99.90;;;;;;5031969;28;20087;-70
2023/07/24 09:08:53;;;;;;;12.45;7.05;;;20.00;99.90;;;;;;5033607;28;20045;-70
2023/07/24 09:11:18;;;;;;;11.70;6.35;;;20.10;99.90;;;;;;5031643;28;20041;-70
2023/07/24 09:13:44;;;;;;;11.57;7.20;;;20.20;99.90;;;;;;5032409;28;20049;-70
2023/07/24 09:16:22;;;;;;;14.70;7.28;;;20.20;99.90;;;;;;5033109;28;20125;-74
2023/07/24 09:18:48;;;;;;;12.63;7.57;;;20.20;99.90;;;;;;5032142;28;20053;-73
2023/07/24 09:21:14;;;;;;;12.48;7.72;;;20.10;99.90;;;;;;5032461;28;20557;-75
2023/07/24 09:23:40;;;;;;;13.40;6.60;;;20.10;99.90;;;;;;5017869;28;20072;-71
2023/07/24 09:26:07;;;;;;;15.55;7.10;;;20.20;99.90;;;;;;5032957;28;20053;-73
2023/07/24 09:28:33;;;;;;;13.75;6.43;;;20.30;99.90;;;;;;5048008;28;20052;-73
2023/07/24 09:31:03;;;;;;;11.02;6.32;;;20.60;99.90;;;;;;5033117;28;20092;-73
2023/07/24 09:33:39;;;;;;;13.05;6.15;;;20.80;99.90;;;;;;5032395;28;20147;-73
2023/07/24 09:36:09;;;;;;;16.15;6.57;;;20.90;99.90;;;;;;5032863;28;20049;-73
2023/07/24 09:38:39;;;;;;;13.98;6.35;;;20.90;99.90;;;;;;5032498;28;20049;-73
2023/07/24 09:41:06;;;;;;;13.63;6.97;;;20.90;99.90;;;;;;5032574;28;20411;-73
2023/07/24 09:43:32;;;;;;;15.70;7.07;;;21.00;99.90;;;;;;5029621;28;20045;-74
2023/07/24 09:45:58;;;;;;;13.38;7.13;;;21.20;99.90;;;;;;5033369;28;20183;-74
2023/07/24 09:48:26;;;;;;;15.05;6.82;;;21.30;99.90;;;;;;5032004;28;20174;-73
2023/07/24 09:50:57;;;;;;;13.82;6.40;;;21.40;99.90;;;;;;5031500;28;20060;-73
2023/07/24 09:53:43;;;;;;;11.27;6.60;;;21.60;99.90;;;;;;5031071;28;20391;-74
2023/07/24 09:56:10;;;;;;;12.23;6.18;;;21.70;99.90;;;;;;5032664;28;20056;-73
2023/07/24 09:58:37;;;;;;;16.48;6.15;;;21.80;99.90;;;;;;5031516;28;20378;-73
2023/07/24 10:01:05;;;;;;;13.88;5.78;;;21.90;99.90;;;;;;5031910;28;20491;-71
2023/07/24 10:03:38;;;;;;;9.40;5.55;;;22.00;99.90;;;;;;5030672;28;20042;-72
2023/07/24 10:06:04;;;;;;;11.27;5.88;;;22.10;99.90;;;;;;5030730;28;20095;-72
2023/07/24 10:08:31;;;;;;;9.57;5.75;;;22.30;99.90;;;;;;5031872;28;20045;-72
2023/07/24 10:10:58;;;;;;;12.90;5.25;;;22.60;99.90;;;;;;5031962;28;20096;-73
2023/07/24 10:13:27;;;;;;;11.90;5.68;;;22.90;99.90;;;;;;5030641;28;20061;-73
2023/07/24 10:15:53;;;;;;;9.43;5.25;;;23.10;99.90;;;;;;5032166;28;20077;-74
2023/07/24 10:18:26;;;;;;;10.13;5.68;;;23.30;99.90;;;;;;5032123;28;20399;-78
2023/07/24 10:21:09;;;;;;;12.10;6.05;;;23.30;99.90;;;;;;5031303;28;20054;-72
2023/07/24 10:23:37;;;;;;;10.75;5.68;;;23.20;99.90;;;;;;5031805;28;20491;-72
2023/07/24 10:26:04;;;;;;;10.77;6.18;;;23.10;99.90;;;;;;5032110;28;20049;-72
2023/07/24 10:28:38;;;;;;;11.13;6.75;;;22.90;99.90;;;;;;5030771;28;20349;-71
2023/07/24 10:31:08;;;;;;;9.93;7.05;;;22.80;99.90;;;;;;5031992;28;20045;-72
2023/07/24 10:33:40;;;;;;;11.15;6.88;;;22.90;99.90;;;;;;5031511;28;20133;-72
2023/07/24 10:36:13;;;;;;;11.20;6.50;;;23.10;99.90;;;;;;5031764;28;20119;-73
2023/07/24 10:38:43;;;;;;;12.15;6.75;;;23.40;99.90;;;;;;5031445;28;20088;-71
2023/07/24 10:41:11;;;;;;;11.18;6.65;;;23.40;99.90;;;;;;5031706;28;20076;-72
2023/07/24 10:43:51;;;;;;;8.82;5.85;;;23.40;99.90;;;;;;5030497;28;20056;-71
2023/07/24 10:46:18;;;;;;;11.70;6.47;;;23.40;99.90;;;;;;5031335;28;20633;-72
2023/07/24 10:48:47;;;;;;;8.70;4.43;;;23.30;99.90;;;;;;5031079;28;20132;-72
2023/07/24 10:51:14;;;;;;;7.60;4.10;;;23.20;99.90;;;;;;5030786;28;20080;-72
2023/07/24 10:53:46;;;;;;;6.03;3.50;;;23.00;99.90;;;;;;5031099;28;20582;-72
2023/07/24 10:56:12;;;;;;;6.20;3.60;;;22.70;99.90;;;;;;5030727;28;20045;-73
2023/07/24 10:58:38;;;;;;;6.13;3.78;;;22.50;99.90;;;;;;5031114;28;20609;-73
2023/07/24 11:01:05;;;;;;;5.97;3.80;;;22.40;99.90;;;;;;5031398;28;20077;-71
2023/07/24 11:03:32;;;;;;;6.72;4.57;;;22.20;99.90;;;;;;5031556;28;20049;-72
2023/07/24 11:05:58;;;;;;;8.40;4.90;;;21.90;99.90;;;;;;5031586;28;20107;-71
2023/07/24 11:08:24;;;;;;;9.10;4.70;;;21.60;99.90;;;;;;5031717;28;20052;-75
2023/07/24 11:10:55;;;;;;;9.48;4.53;;;21.40;99.90;;;;;;5030407;28;20053;-72
2023/07/24 11:13:22;;;;;;;8.23;4.10;;;21.30;99.90;;;;;;5031806;28;20042;-71
2023/07/24 11:15:49;;;;;;;6.90;4.20;;;21.20;99.90;;;;;;5032770;28;20053;-71
2023/07/24 11:18:16;;;;;;;14.50;5.20;;;21.30;99.90;;;;;;5035768;28;20103;-71
2023/07/24 11:20:51;;;;;;;11.77;5.20;;;21.40;99.90;;;;;;5037521;28;20041;-72
2023/07/24 11:23:17;;;;;;;8.30;4.55;;;21.40;99.90;;;;;;5035498;28;20467;-71
2023/07/24 11:25:44;;;;;;;6.82;4.43;;;21.30;99.90;;;;;;5035405;28;20056;-74
2023/07/24 11:28:12;;;;;;;9.63;4.93;;;21.20;99.90;;;;;;5036910;28;20104;-70
2023/07/24 11:30:37;;;;;;;18.58;6.60;;;21.10;99.90;;;;;;5035218;28;20136;-70
2023/07/24 11:33:05;;;;;;;10.77;5.50;;;21.00;99.90;;;;;;5034107;28;20132;-75
2023/07/24 11:35:32;;;;;;;8.60;5.10;;;21.10;99.90;;;;;;5034776;28;20115;-72
2023/07/24 11:37:58;;;;;;;13.45;5.38;;;21.10;99.90;;;;;;5033756;28;20567;-70
2023/07/24 11:40:37;;;;;;;10.55;5.43;;;21.10;99.90;;;;;;5034461;28;20061;-70
2023/07/24 11:43:03;;;;;;;10.40;5.72;;;21.20;99.90;;;;;;5034846;28;20081;-70
2023/07/24 11:45:30;;;;;;;7.97;5.60;;;21.30;99.90;;;;;;5033608;28;20050;-77
2023/07/24 11:47:56;;;;;;;8.65;6.25;;;21.40;99.90;;;;;;5034641;28;20130;-70
2023/07/24 11:50:23;;;;;;;13.18;5.97;;;21.50;99.90;;;;;;5033833;28;20138;-69
2023/07/24 11:52:51;;;;;;;10.48;5.75;;;21.70;99.90;;;;;;5034301;28;20084;-69
2023/07/24 11:55:38;;;;;;;11.00;6.18;;;21.80;99.90;;;;;;5034658;28;20494;-70
2023/07/24 11:58:04;;;;;;;8.63;5.65;;;22.10;99.90;;;;;;5033720;28;20064;-71
2023/07/24 12:00:33;;;;;;;7.38;4.95;;;22.20;99.90;;;;;;5034508;28;20045;-71
2023/07/24 12:03:00;;;;;;;8.65;4.90;;;22.30;99.90;;;;;;5034265;28;20047;-71
2023/07/24 12:05:25;;;;;;;7.20;4.80;;;22.40;99.90;;;;;;5034616;28;20120;-72
2023/07/24 12:07:54;;;;;;;7.85;4.70;;;22.50;99.90;;;;;;5032847;28;20551;-72
2023/07/24 12:10:28;;;;;;;6.95;4.50;;;22.50;99.90;;;;;;5034177;28;20122;-73
2023/07/24 12:12:54;;;;;;;8.23;4.70;;;22.70;99.90;;;;;;5031896;28;20041;-73
2023/07/24 12:15:20;;;;;;;11.20;5.00;;;22.70;99.90;;;;;;5050028;28;20128;-73
2023/07/24 12:17:46;;;;;;;8.40;3.80;;;22.60;99.90;;;;;;5033895;28;20080;-73
2023/07/24 12:20:12;;;;;;;9.23;5.05;;;22.50;99.90;;;;;;5034026;28;20151;-71
2023/07/24 12:22:38;;;;;;;10.98;6.60;;;22.40;99.90;;;;;;5033681;28;20064;-72
2023/07/24 12:25:06;;;;;;;14.52;7.63;;;22.30;99.90;;;;;;5034102;28;20084;-73
2023/07/24 12:27:32;;;;;;;12.35;7.07;;;22.10;99.90;;;;;;5033458;28;20052;-72
2023/07/24 12:29:59;;;;;;;12.23;7.28;;;21.80;99.90;;;;;;5032489;28;20474;-73
2023/07/24 12:32:24;;;;;;;14.35;7.15;;;21.50;99.90;;;;;;5034056;28;20150;-71
2023/07/24 12:34:51;;;;;;;11.02;6.63;;;21.30;99.90;;;;;;5033348;28;20521;-72
2023/07/24 12:37:18;;;;;;;10.05;6.60;;;21.00;99.90;;;;;;5033651;28;20495;-71